Ontario International Airport
KONT : now visible

Airfield :











YOU CAN JOIN US ON...

 
LOGIN :

Register | Disclaimer

   EN    FR    IT 

 









Legend :    VFR   Marginal VFR   IFR   Intensive IFR   Very Intensive IFR
Visi :
Ceiling :
>= 8 km
>= 3000ft
5 to 8 km
1000 to 3000 ft
1500m to 5 km
500 to 1000 ft
800 to 1500m
200 to 500 ft
< 800m
< 200 ft
Symbols :   Thunderstorms  Fog  Heavy snow  Heavy precipitations  Wind > 20 kt






- Airport Elevation : 944 ft
- IATA code : ONT


KONT - Ontario International

CURRENT METAR :
  • 131653Z 21003KT 9SM FEW220 BKN250 17/06 A3003 RMK AO2 SLP162 T01720061

EXPIRED METARs :
  • 131553Z 00000KT 9SM FEW220 BKN250 16/05 A3002 RMK AO2 SLP158 T01610050
  • 131453Z 00000KT 7SM FEW220 BKN250 12/05 A3001 RMK AO2 SLP156 VIS S 2 1/2 T01170050 53007

TAF KONT
Valid from the 13 at 12:00 until the 14 at 18:00 UTC


131129Z 1312/1418 VRB03KT 5SM HZ SCT250
FM131700 VRB04KT P6SM BKN250
FM132100 26009KT P6SM SCT200 BKN250
FM140300 VRB04KT P6SM BKN200
FM140800 VRB03KT 5SM HZ BKN200
FM141700 VRB03KT P6SM BKN200



MET'MAP, your aeronautical weather chart ! - Copyright ORBIFLY December 2007 - Disclaimer

ORBIFLY MET'MAP TEAM :

Programming & Development : Alexandra Zaïnal
Concept & Development : Baudouin d'Aumeries
Co-Development & Prog : Marc-Olivier Méhu
Technical & hardware support : Manuel Goepfert

Contact : metmap@orbifly.com




SOURCES & CREDITS :

   NOAA       Earth
Advisory